Time;durP1;ratioP1;P1;durP2;ratioP2;P2;SDS_P1;SDS_P2;PMS_P1;PMS_P2;Temp;Humidity;BMP_temperature;BMP_pressure;BME280_temperature;BME280_humidity;BME280_pressure;Samples;Min_cycle;Max_cycle;Signal;HPM_P1;HPM_P2
2024/04/05 00:00:39;;;;;;;;;;;;;;;11.81;34.69;93344.13;3152688;28;1700;-70
2024/04/05 00:02:09;;;;;;;;;;;;;;;11.78;34.34;93342.81;3144880;28;1741;-70
2024/04/05 00:03:40;;;;;;;;;;;;;;;11.74;34.11;93338.31;3152701;28;1655;-70
2024/04/05 00:05:11;;;;;;;;;;;;;;;11.72;34.29;93340.50;3144230;28;1633;-70
2024/04/05 00:06:42;;;;;;;;;;;;;;;11.71;34.07;93339.69;3140278;28;1641;-70
2024/04/05 00:08:13;;;;;;;;;;;;;;;11.67;34.20;93338.69;3140139;28;1962;-70
2024/04/05 00:09:43;;;;;;;;;;;;;;;11.61;34.62;93337.19;3127907;28;1878;-70
2024/04/05 00:11:14;;;;;;;;;;;;;;;11.55;34.40;93341.03;3136140;28;1656;-70
2024/04/05 00:12:46;;;;;;;;;;;;;;;11.48;34.58;93336.06;3131976;28;1645;-70
2024/04/05 00:14:17;;;;;;;;;;;;;;;11.41;34.99;93329.47;3149377;28;1697;-70
2024/04/05 00:15:48;;;;;;;;;;;;;;;11.33;34.29;93339.00;3148355;28;1729;-70
2024/04/05 00:17:18;;;;;;;;;;;;;;;11.26;35.14;93338.59;3140020;28;1784;-70
2024/04/05 00:18:50;;;;;;;;;;;;;;;11.20;35.04;93337.06;3152375;28;1984;-70
2024/04/05 00:20:20;;;;;;;;;;;;;;;11.19;34.60;93330.09;3144470;28;1795;-70
2024/04/05 00:21:51;;;;;;;;;;;;;;;11.19;35.30;93327.41;3139961;28;1625;-70
2024/04/05 00:23:22;;;;;;;;;;;;;;;11.17;35.60;93337.69;3139941;28;1399;-70
2024/04/05 00:24:55;;;;;;;;;;;;;;;11.18;35.32;93333.88;3140438;28;1608;-69
2024/04/05 00:26:26;;;;;;;;;;;;;;;11.18;35.04;93331.19;3140640;28;1715;-70
2024/04/05 00:27:56;;;;;;;;;;;;;;;11.16;35.43;93325.34;3144250;28;1952;-70
2024/04/05 00:29:27;;;;;;;;;;;;;;;11.12;35.37;93330.47;3131685;28;1688;-70
2024/04/05 00:30:58;;;;;;;;;;;;;;;11.09;35.21;93320.31;3136012;28;1649;-70
2024/04/05 00:32:29;;;;;;;;;;;;;;;11.07;34.88;93321.69;3152619;28;1796;-70
2024/04/05 00:33:59;;;;;;;;;;;;;;;11.05;35.56;93322.00;3148243;28;1700;-70
2024/04/05 00:35:30;;;;;;;;;;;;;;;11.09;35.94;93324.88;3152416;28;1660;-70
2024/04/05 00:37:01;;;;;;;;;;;;;;;11.11;35.35;93315.47;3144313;28;1735;-70
2024/04/05 00:38:31;;;;;;;;;;;;;;;11.12;35.97;93321.63;3127768;28;1942;-70
2024/04/05 00:40:02;;;;;;;;;;;;;;;11.11;35.99;93317.34;3135879;28;1898;-70
2024/04/05 00:41:33;;;;;;;;;;;;;;;11.09;35.74;93316.84;3144006;28;1880;-70
2024/04/05 00:43:04;;;;;;;;;;;;;;;11.13;35.48;93313.28;3140172;28;1861;-70
2024/04/05 00:44:35;;;;;;;;;;;;;;;11.21;35.83;93311.78;3144083;28;1796;-70
2024/04/05 00:46:06;;;;;;;;;;;;;;;11.24;35.42;93308.53;3140075;28;1654;-70
2024/04/05 00:47:37;;;;;;;;;;;;;;;11.25;35.96;93310.94;3152715;28;1796;-70
2024/04/05 00:49:08;;;;;;;;;;;;;;;11.25;35.53;93312.81;3131620;28;1500;-70
2024/04/05 00:50:39;;;;;;;;;;;;;;;11.22;35.33;93308.81;3138170;28;1693;-70
2024/04/05 00:52:10;;;;;;;;;;;;;;;11.21;35.43;93306.44;3142305;28;1638;-70
2024/04/05 00:53:40;;;;;;;;;;;;;;;11.21;35.79;93306.44;3154917;28;1696;-70
2024/04/05 00:55:11;;;;;;;;;;;;;;;11.21;36.26;93299.16;3146523;28;1912;-70
2024/04/05 00:56:41;;;;;;;;;;;;;;;11.22;35.31;93308.81;3154753;28;1669;-70
2024/04/05 00:58:12;;;;;;;;;;;;;;;11.25;36.26;93310.13;3146330;28;1784;-70
2024/04/05 00:59:43;;;;;;;;;;;;;;;11.25;36.28;93308.25;3146312;28;1906;-69
2024/04/05 01:01:13;;;;;;;;;;;;;;;11.31;36.18;93306.25;3146550;28;1644;-70
2024/04/05 01:02:45;;;;;;;;;;;;;;;11.39;35.59;93307.47;3154565;28;1655;-70
2024/04/05 01:04:17;;;;;;;;;;;;;;;11.45;35.87;93314.34;3134252;28;1915;-70
2024/04/05 01:05:48;;;;;;;;;;;;;;;11.47;35.31;93312.16;3138776;28;1816;-70
2024/04/05 01:07:19;;;;;;;;;;;;;;;11.50;35.21;93317.75;3142461;28;1673;-70
2024/04/05 01:08:50;;;;;;;;;;;;;;;11.52;35.56;93320.13;3154966;28;1786;-70
2024/04/05 01:10:20;;;;;;;;;;;;;;;11.50;35.90;93315.06;3146117;28;1683;-70
2024/04/05 01:11:57;;;;;;;;;;;;;;;11.45;35.52;93317.03;3142217;28;1668;-70
2024/04/05 01:13:28;;;;;;;;;;;;;;;11.43;35.73;93321.91;3156112;28;1810;-70
2024/04/05 01:14:58;;;;;;;;;;;;;;;11.41;35.96;93324.88;3146308;28;1629;-70
2024/04/05 01:16:29;;;;;;;;;;;;;;;11.38;35.43;93316.63;3146372;28;1465;-70
2024/04/05 01:18:01;;;;;;;;;;;;;;;11.34;35.44;93315.63;3141966;28;1660;-70
2024/04/05 01:19:32;;;;;;;;;;;;;;;11.27;35.39;93321.38;3154874;28;1910;-70
2024/04/05 01:21:02;;;;;;;;;;;;;;;11.20;35.89;93321.75;3158571;28;1935;-70
2024/04/05 01:22:40;;;;;;;;;;;;;;;11.14;35.96;93322.13;3162760;28;1644;-70
2024/04/05 01:24:11;;;;;;;;;;;;;;;11.06;35.71;93320.91;3146938;28;1659;-70
2024/04/05 01:25:41;;;;;;;;;;;;;;;11.03;35.91;93331.44;3133653;28;1861;-70
2024/04/05 01:27:12;;;;;;;;;;;;;;;11.03;36.21;93326.06;3142113;28;1744;-69
2024/04/05 01:28:43;;;;;;;;;;;;;;;10.98;36.05;93332.31;3142312;28;1613;-69
2024/04/05 01:30:14;;;;;;;;;;;;;;;10.95;35.87;93327.53;3141759;28;1652;-70
2024/04/05 01:31:44;;;;;;;;;;;;;;;10.90;35.62;93335.66;3141781;28;1930;-70
2024/04/05 01:33:15;;;;;;;;;;;;;;;10.84;36.62;93336.81;3141819;28;1661;-70
2024/04/05 01:34:46;;;;;;;;;;;;;;;10.77;36.00;93333.72;3129450;28;1650;-70
2024/04/05 01:36:16;;;;;;;;;;;;;;;10.72;35.95;93336.50;3125536;28;1654;-70
2024/04/05 01:37:47;;;;;;;;;;;;;;;10.67;36.46;93336.56;3138021;28;1795;-70
2024/04/05 01:39:18;;;;;;;;;;;;;;;10.70;36.71;93335.97;3154480;28;1906;-70
2024/04/05 01:40:48;;;;;;;;;;;;;;;10.68;36.76;93333.56;3158419;28;1955;-70
2024/04/05 01:42:19;;;;;;;;;;;;;;;10.67;35.77;93329.28;3145883;28;1673;-70
2024/04/05 01:43:50;;;;;;;;;;;;;;;10.64;35.98;93329.88;3133446;28;1276;-70
2024/04/05 01:45:20;;;;;;;;;;;;;;;10.58;36.39;93343.66;3125387;28;1913;-70
2024/04/05 01:46:51;;;;;;;;;;;;;;;10.51;36.17;93342.13;3137742;28;1802;-70
2024/04/05 01:48:21;;;;;;;;;;;;;;;10.48;36.48;93345.41;3129374;28;1644;-70
2024/04/05 01:49:53;;;;;;;;;;;;;;;10.42;36.73;93338.50;3150189;28;1633;-69
2024/04/05 01:51:24;;;;;;;;;;;;;;;10.44;36.41;93347.06;3145801;28;1864;-70
2024/04/05 01:52:54;;;;;;;;;;;;;;;10.42;36.51;93343.84;3154071;28;1868;-69
2024/04/05 01:54:25;;;;;;;;;;;;;;;10.36;36.32;93339.66;3145614;28;1834;-69
2024/04/05 01:56:01;;;;;;;;;;;;;;;10.29;36.67;93331.16;3137424;28;1664;-69
2024/04/05 01:57:36;;;;;;;;;;;;;;;10.22;37.32;93327.22;3143251;28;1649;-70
2024/04/05 01:59:07;;;;;;;;;;;;;;;10.22;36.95;93333.41;3146233;28;1910;-70
2024/04/05 02:00:37;;;;;;;;;;;;;;;10.21;37.12;93341.72;3141646;28;1646;-69
2024/04/05 02:02:08;;;;;;;;;;;;;;;10.20;36.91;93335.56;3144610;28;1925;-69
2024/04/05 02:03:39;;;;;;;;;;;;;;;10.17;37.17;93330.72;3153979;28;1795;-69
2024/04/05 02:05:09;;;;;;;;;;;;;;;10.17;37.30;93328.06;3133195;28;1906;-69
2024/04/05 02:06:41;;;;;;;;;;;;;;;10.19;37.50;93331.28;3149991;28;1868;-70
2024/04/05 02:08:12;;;;;;;;;;;;;;;10.18;36.78;93338.53;3133317;28;1634;-69
2024/04/05 02:09:45;;;;;;;;;;;;;;;10.20;36.99;93332.88;3137566;28;1671;-69
2024/04/05 02:11:16;;;;;;;;;;;;;;;10.20;37.11;93338.25;3146212;28;1737;-69
2024/04/05 02:12:46;;;;;;;;;;;;;;;10.21;37.48;93337.16;3145520;28;1847;-70
2024/04/05 02:14:17;;;;;;;;;;;;;;;10.18;37.04;93329.69;3145694;28;1657;-69
2024/04/05 02:15:48;;;;;;;;;;;;;;;10.18;37.45;93333.16;3141395;28;1666;-69
2024/04/05 02:17:18;;;;;;;;;;;;;;;10.22;37.20;93327.22;3154074;28;1617;-69
2024/04/05 02:18:49;;;;;;;;;;;;;;;10.24;37.46;93333.91;3132988;28;1910;-69
2024/04/05 02:20:20;;;;;;;;;;;;;;;10.26;37.78;93329.06;3149797;28;1919;-69
2024/04/05 02:21:51;;;;;;;;;;;;;;;10.30;37.73;93332.75;3133040;28;1858;-69
2024/04/05 02:23:21;;;;;;;;;;;;;;;10.35;36.84;93337.25;3154018;28;1614;-69
2024/04/05 02:24:52;;;;;;;;;;;;;;;10.36;37.59;93341.53;3145382;28;1871;-69
2024/04/05 02:26:23;;;;;;;;;;;;;;;10.37;37.45;93343.94;3141432;28;1854;-69
2024/04/05 02:27:53;;;;;;;;;;;;;;;10.37;37.55;93354.69;3128730;28;1855;-69
2024/04/05 02:29:24;;;;;;;;;;;;;;;10.33;37.35;93352.84;3141324;28;1978;-69
2024/04/05 02:30:54;;;;;;;;;;;;;;;10.26;38.01;93347.84;3153715;28;1648;-69
2024/04/05 02:32:25;;;;;;;;;;;;;;;10.18;37.30;93353.81;3157865;28;1680;-69
2024/04/05 02:33:56;;;;;;;;;;;;;;;10.09;37.33;93364.34;3145202;28;1696;-69
2024/04/05 02:35:27;;;;;;;;;;;;;;;10.01;37.41;93362.31;3141366;28;1649;-69
2024/04/05 02:36:57;;;;;;;;;;;;;;;9.92;36.98;93371.28;3153900;28;1859;-69
2024/04/05 02:38:28;;;;;;;;;;;;;;;9.83;37.08;93371.09;3145109;28;1693;-69
2024/04/05 02:40:00;;;;;;;;;;;;;;;9.73;37.39;93373.88;3145194;28;1906;-69
2024/04/05 02:41:31;;;;;;;;;;;;;;;9.66;37.64;93368.84;3129240;28;1637;-69
2024/04/05 02:43:02;;;;;;;;;;;;;;;9.61;37.57;93368.91;3137094;28;1918;-69
2024/04/05 02:44:33;;;;;;;;;;;;;;;9.56;37.70;93370.84;3153705;28;1767;-69
2024/04/05 02:46:03;;;;;;;;;;;;;;;9.51;38.13;93363.63;3157581;28;1666;-69
2024/04/05 02:47:34;;;;;;;;;;;;;;;9.47;37.99;93359.94;3157754;28;1637;-69
2024/04/05 02:49:05;;;;;;;;;;;;;;;9.50;38.47;93369.28;3149186;28;1794;-69
2024/04/05 02:50:36;;;;;;;;;;;;;;;9.51;38.17;93366.31;3153786;28;1632;-69
2024/04/05 02:52:06;;;;;;;;;;;;;;;9.50;38.23;93369.28;3157524;28;1685;-69
2024/04/05 02:53:37;;;;;;;;;;;;;;;9.44;38.33;93365.84;3136982;28;1796;-69
2024/04/05 02:55:08;;;;;;;;;;;;;;;9.41;38.61;93366.41;3149222;28;1819;-69
2024/04/05 02:56:38;;;;;;;;;;;;;;;9.38;38.31;93362.41;3144999;28;1951;-69
2024/04/05 02:58:09;;;;;;;;;;;;;;;9.35;38.47;93357.63;3140900;28;1876;-69
2024/04/05 02:59:40;;;;;;;;;;;;;;;9.34;38.50;93358.72;3153474;28;1993;-69
2024/04/05 03:01:11;;;;;;;;;;;;;;;9.35;38.27;93356.84;3157524;28;1716;-69
2024/04/05 03:02:42;;;;;;;;;;;;;;;9.36;38.64;93359.25;3132504;28;1794;-69
2024/04/05 03:04:12;;;;;;;;;;;;;;;9.35;38.47;93352.28;3137113;28;1609;-69
2024/04/05 03:05:43;;;;;;;;;;;;;;;9.36;38.54;93350.41;3153184;28;1958;-69
2024/04/05 03:07:14;;;;;;;;;;;;;;;9.35;38.81;93346.13;3144812;28;1737;-69
2024/04/05 03:08:44;;;;;;;;;;;;;;;9.31;38.71;93350.44;3153554;28;2506;-69
2024/04/05 03:10:16;;;;;;;;;;;;;;;9.28;38.87;93342.97;3157257;28;1680;-69
2024/04/05 03:11:46;;;;;;;;;;;;;;;9.26;38.58;93343.22;3144896;28;1821;-69
2024/04/05 03:13:17;;;;;;;;;;;;;;;9.29;38.70;93341.88;3153375;28;1660;-69
2024/04/05 03:14:50;;;;;;;;;;;;;;;9.32;38.71;93344.00;3157399;28;2406;-69
2024/04/05 03:16:21;;;;;;;;;;;;;;;9.31;38.65;93345.09;3145217;28;1604;-69
2024/04/05 03:17:52;;;;;;;;;;;;;;;9.29;38.67;93342.69;3153357;28;1895;-69
2024/04/05 03:19:23;;;;;;;;;;;;;;;9.32;39.01;93352.03;3157277;28;2000;-69
2024/04/05 03:20:54;;;;;;;;;;;;;;;9.34;38.82;93349.88;3144715;28;1798;-69
2024/04/05 03:22:25;;;;;;;;;;;;;;;9.37;38.58;93352.78;3140645;28;1664;-69
2024/04/05 03:23:55;;;;;;;;;;;;;;;9.37;38.41;93347.41;3144924;28;1909;-69
2024/04/05 03:25:26;;;;;;;;;;;;;;;9.35;38.67;93354.16;3153084;28;1319;-69
2024/04/05 03:26:56;;;;;;;;;;;;;;;9.33;38.70;93354.44;3144723;28;1782;-69
2024/04/05 03:28:27;;;;;;;;;;;;;;;9.32;38.82;93357.41;3153206;28;1641;-69
2024/04/05 03:29:58;;;;;;;;;;;;;;;9.30;38.67;93355.00;3144702;28;1814;-69
2024/04/05 03:31:29;;;;;;;;;;;;;;;9.25;38.82;93360.41;3153039;28;1680;-69
2024/04/05 03:33:00;;;;;;;;;;;;;;;9.21;38.64;93358.56;3144543;28;1940;-69
2024/04/05 03:34:30;;;;;;;;;;;;;;;9.17;38.83;93361.00;3128452;28;1625;-69
2024/04/05 03:36:02;;;;;;;;;;;;;;;9.07;38.74;93369.13;3148960;28;1634;-69
2024/04/05 03:37:33;;;;;;;;;;;;;;;8.97;39.03;93372.66;3144900;28;1668;-69
2024/04/05 03:39:03;;;;;;;;;;;;;;;8.91;39.15;93376.47;3152900;28;1914;-69
2024/04/05 03:40:40;;;;;;;;;;;;;;;8.90;39.47;93379.44;3144417;28;1693;-69
2024/04/05 03:42:11;;;;;;;;;;;;;;;8.82;39.45;93378.13;3145539;28;1706;-69
2024/04/05 03:43:41;;;;;;;;;;;;;;;8.76;39.50;93373.09;3152991;28;1942;-69
2024/04/05 03:45:12;;;;;;;;;;;;;;;8.68;39.71;93374.50;3157074;28;1784;-69
2024/04/05 03:46:45;;;;;;;;;;;;;;;8.62;39.57;93373.72;3156950;28;1641;-69
2024/04/05 03:48:16;;;;;;;;;;;;;;;8.57;39.73;93379.09;3132385;28;1804;-69
2024/04/05 03:49:46;;;;;;;;;;;;;;;8.53;39.82;93383.41;3149223;28;1617;-69
2024/04/05 03:51:17;;;;;;;;;;;;;;;8.53;39.75;93382.59;3144528;28;1625;-69
2024/04/05 03:52:48;;;;;;;;;;;;;;;8.54;39.77;93386.88;3144290;28;1632;-69
2024/04/05 03:54:19;;;;;;;;;;;;;;;8.57;39.77;93387.13;3152974;28;1417;-69
2024/04/05 03:55:55;;;;;;;;;;;;;;;8.57;39.44;93383.66;3157101;28;1695;-69
2024/04/05 03:57:26;;;;;;;;;;;;;;;8.53;39.55;93388.75;3145394;28;1635;-69
2024/04/05 03:58:56;;;;;;;;;;;;;;;8.49;39.79;93389.56;3127884;28;1910;-69
2024/04/05 04:00:27;;;;;;;;;;;;;;;8.44;39.65;93390.41;3140208;28;1887;-69
2024/04/05 04:01:57;;;;;;;;;;;;;;;8.44;39.93;93389.59;3140196;28;1916;-68
2024/04/05 04:03:28;;;;;;;;;;;;;;;8.46;39.68;93390.94;3152635;28;1664;-69
2024/04/05 04:04:59;;;;;;;;;;;;;;;8.49;39.86;93386.88;3144500;28;1778;-69
2024/04/05 04:06:29;;;;;;;;;;;;;;;8.52;39.78;93389.81;3152758;28;1873;-69
2024/04/05 04:08:00;;;;;;;;;;;;;;;8.54;40.03;93392.22;3144507;28;1783;-69
2024/04/05 04:09:31;;;;;;;;;;;;;;;8.55;39.82;93396.50;3153034;28;1642;-69
2024/04/05 04:11:05;;;;;;;;;;;;;;;8.60;40.01;93391.91;3157001;28;1818;-69
2024/04/05 04:12:36;;;;;;;;;;;;;;;8.67;39.90;93397.78;3144638;28;1672;-69
2024/04/05 04:14:06;;;;;;;;;;;;;;;8.68;39.75;93401.25;3152760;28;1800;-69
2024/04/05 04:15:37;;;;;;;;;;;;;;;8.72;39.81;93394.25;3144224;28;1692;-69
2024/04/05 04:17:08;;;;;;;;;;;;;;;8.74;39.88;93400.13;3157081;28;1644;-69
2024/04/05 04:18:39;;;;;;;;;;;;;;;8.76;39.79;93394.50;3136087;28;1648;-69
2024/04/05 04:20:09;;;;;;;;;;;;;;;8.76;40.33;93400.66;3152644;28;1778;-69
2024/04/05 04:21:40;;;;;;;;;;;;;;;8.77;40.03;93396.09;3156848;28;1790;-69
2024/04/05 04:23:13;;;;;;;;;;;;;;;8.78;40.04;93403.84;3132013;28;1629;-69
2024/04/05 04:24:44;;;;;;;;;;;;;;;8.78;40.33;93409.22;3149260;28;1702;-69
2024/04/05 04:26:16;;;;;;;;;;;;;;;8.81;40.08;93410.50;3147015;28;1382;-69
2024/04/05 04:27:48;;;;;;;;;;;;;;;8.85;40.22;93414.25;3146843;28;1668;-70
2024/04/05 04:29:19;;;;;;;;;;;;;;;8.86;40.02;93411.28;3143407;28;1978;-69
2024/04/05 04:30:50;;;;;;;;;;;;;;;8.88;39.99;93416.38;3143186;28;1626;-69
2024/04/05 04:32:24;;;;;;;;;;;;;;;8.84;39.99;93418.00;3151009;28;1670;-70
2024/04/05 04:33:54;;;;;;;;;;;;;;;8.79;39.99;93420.72;3134719;28;1637;-69
2024/04/05 04:35:25;;;;;;;;;;;;;;;8.75;40.22;93425.81;3142903;28;1752;-69
2024/04/05 04:36:56;;;;;;;;;;;;;;;8.74;40.53;93419.66;3155180;28;1688;-69
2024/04/05 04:38:27;;;;;;;;;;;;;;;8.77;40.34;93415.63;3146859;28;1607;-69
2024/04/05 04:39:58;;;;;;;;;;;;;;;8.77;40.50;93421.00;3142708;28;1618;-69
2024/04/05 04:41:29;;;;;;;;;;;;;;;8.81;40.66;93427.38;3155315;28;1720;-69
2024/04/05 04:42:59;;;;;;;;;;;;;;;8.93;40.65;93429.72;3159087;28;1651;-69
2024/04/05 04:44:31;;;;;;;;;;;;;;;9.06;40.59;93421.84;3163369;28;1937;-69
2024/04/05 04:46:01;;;;;;;;;;;;;;;9.20;40.61;93431.94;3146812;28;1669;-69
2024/04/05 04:47:32;;;;;;;;;;;;;;;9.28;40.67;93424.09;3146825;28;1594;-69
2024/04/05 04:49:03;;;;;;;;;;;;;;;9.37;40.98;93424.31;3129970;28;2007;-69
2024/04/05 04:50:33;;;;;;;;;;;;;;;9.46;40.78;93428.00;3126113;28;1665;-69
2024/04/05 04:52:04;;;;;;;;;;;;;;;9.57;41.34;93429.50;3138013;28;1719;-69
2024/04/05 04:53:36;;;;;;;;;;;;;;;9.66;40.75;93435.84;3154946;28;1880;-70
2024/04/05 04:55:10;;;;;;;;;;;;;;;9.75;41.16;93434.16;3159033;28;1653;-70
2024/04/05 04:56:41;;;;;;;;;;;;;;;9.81;41.00;93433.03;3146871;28;1621;-70
2024/04/05 04:58:16;;;;;;;;;;;;;;;9.88;40.67;93437.25;3142838;28;1678;-70
2024/04/05 04:59:47;;;;;;;;;;;;;;;9.96;40.91;93442.00;3143411;28;1704;-70
2024/04/05 05:01:18;;;;;;;;;;;;;;;10.00;41.11;93441.16;3134160;28;1640;-70
2024/04/05 05:02:48;;;;;;;;;;;;;;;10.07;41.15;93438.94;3138283;28;1784;-70
2024/04/05 05:04:19;;;;;;;;;;;;;;;10.16;41.16;93439.09;3129808;28;1908;-70
2024/04/05 05:05:50;;;;;;;;;;;;;;;10.25;41.18;93452.75;3125949;28;1930;-70
2024/04/05 05:07:21;;;;;;;;;;;;;;;10.31;40.78;93443.53;3138079;28;1651;-70
2024/04/05 05:08:51;;;;;;;;;;;;;;;10.36;41.32;93444.28;3142108;28;1992;-70
2024/04/05 05:10:22;;;;;;;;;;;;;;;10.38;41.08;93449.38;3142039;28;1811;-70
2024/04/05 05:11:53;;;;;;;;;;;;;;;10.31;41.31;93440.84;3142224;28;1545;-70
2024/04/05 05:13:23;;;;;;;;;;;;;;;10.27;41.49;93445.22;3129642;28;1697;-70
2024/04/05 05:14:54;;;;;;;;;;;;;;;10.23;40.89;93452.22;3154745;28;1854;-70
2024/04/05 05:16:24;;;;;;;;;;;;;;;10.18;41.24;93450.38;3146038;28;1860;-70
2024/04/05 05:17:55;;;;;;;;;;;;;;;10.16;41.08;93453.31;3141899;28;1665;-69
2024/04/05 05:19:26;;;;;;;;;;;;;;;10.20;41.17;93458.94;3137897;28;1645;-70
2024/04/05 05:20:57;;;;;;;;;;;;;;;10.19;40.86;93460.03;3150442;28;1665;-70
2024/04/05 05:22:28;;;;;;;;;;;;;;;10.21;41.11;93462.44;3146179;28;1963;-69
2024/04/05 05:23:59;;;;;;;;;;;;;;;10.22;40.90;93462.16;3150334;28;1620;-70
2024/04/05 05:25:29;;;;;;;;;;;;;;;10.17;41.07;93465.63;3145991;28;1968;-70
2024/04/05 05:27:00;;;;;;;;;;;;;;;10.13;40.85;93458.47;3142085;28;1888;-70
2024/04/05 05:28:30;;;;;;;;;;;;;;;10.15;40.94;93462.47;3141779;28;1675;-70
2024/04/05 05:30:03;;;;;;;;;;;;;;;10.23;41.13;93461.06;3145857;28;1897;-70
2024/04/05 05:31:33;;;;;;;;;;;;;;;10.29;41.28;93465.28;3158800;28;1892;-70
2024/04/05 05:33:04;;;;;;;;;;;;;;;10.34;41.27;93467.91;3137922;28;1524;-70
2024/04/05 05:34:35;;;;;;;;;;;;;;;10.43;40.91;93462.72;3129608;28;1925;-70
2024/04/05 05:36:06;;;;;;;;;;;;;;;10.49;41.51;93467.75;3141781;28;1885;-70
2024/04/05 05:37:37;;;;;;;;;;;;;;;10.61;40.69;93463.88;3133544;28;1503;-70
2024/04/05 05:39:09;;;;;;;;;;;;;;;10.74;40.89;93463.94;3137956;28;1498;-70
2024/04/05 05:40:41;;;;;;;;;;;;;;;10.91;40.79;93468.84;3154932;28;1653;-70
2024/04/05 05:42:13;;;;;;;;;;;;;;;11.03;40.99;93471.91;3133528;28;1406;-70
2024/04/05 05:43:44;;;;;;;;;;;;;;;11.15;40.47;93476.84;3150500;28;1911;-70
2024/04/05 05:45:14;;;;;;;;;;;;;;;11.27;41.05;93477.22;3145963;28;1705;-70
2024/04/05 05:46:46;;;;;;;;;;;;;;;11.39;40.82;93474.09;3150103;28;1733;-70
2024/04/05 05:48:16;;;;;;;;;;;;;;;11.54;40.77;93471.16;3154311;28;1664;-70
2024/04/05 05:49:51;;;;;;;;;;;;;;;11.71;40.70;93467.94;3145784;28;2056;-70
2024/04/05 05:51:22;;;;;;;;;;;;;;;11.86;41.34;93468.50;3146404;28;1968;-70
2024/04/05 05:52:52;;;;;;;;;;;;;;;11.98;41.02;93474.22;3141704;28;1657;-70
2024/04/05 05:54:23;;;;;;;;;;;;;;;12.14;41.64;93471.28;3141632;28;1566;-70
2024/04/05 05:55:54;;;;;;;;;;;;;;;12.29;41.19;93479.09;3129451;28;1601;-70
2024/04/05 05:57:25;;;;;;;;;;;;;;;12.34;41.19;93471.72;3137787;28;1672;-69
2024/04/05 05:58:56;;;;;;;;;;;;;;;12.42;41.23;93470.22;3154655;28;1599;-70
2024/04/05 06:00:27;;;;;;;;;;;;;;;12.50;41.14;93474.91;3158369;28;1921;-70
2024/04/05 06:01:58;;;;;;;;;;;;;;;12.53;41.04;93479.69;3145754;28;1618;-70
2024/04/05 06:03:28;;;;;;;;;;;;;;;12.58;41.27;93485.00;3145629;28;1712;-69
2024/04/05 06:04:59;;;;;;;;;;;;;;;12.66;41.08;93483.50;3141470;28;1657;-70
2024/04/05 06:06:30;;;;;;;;;;;;;;;12.78;41.28;93493.75;3141647;28;1900;-70
2024/04/05 06:08:00;;;;;;;;;;;;;;;12.92;41.07;93498.06;3154124;28;1802;-70
2024/04/05 06:09:32;;;;;;;;;;;;;;;13.02;41.21;93492.44;3145615;28;1913;-70
2024/04/05 06:11:02;;;;;;;;;;;;;;;13.13;41.12;93490.34;3149624;28;1668;-70
2024/04/05 06:12:35;;;;;;;;;;;;;;;13.14;41.10;93499.22;3145651;28;1684;-70
2024/04/05 06:14:06;;;;;;;;;;;;;;;13.09;41.16;93497.47;3142290;28;1618;-70
2024/04/05 06:15:37;;;;;;;;;;;;;;;13.02;41.41;93497.84;3154195;28;1831;-69
2024/04/05 06:17:11;;;;;;;;;;;;;;;13.04;41.34;93494.84;3158188;28;1876;-70
2024/04/05 06:18:45;;;;;;;;;;;;;;;13.05;40.98;93501.84;3162241;28;1632;-70
2024/04/05 06:20:15;;;;;;;;;;;;;;;13.08;41.32;93503.94;3158269;28;1645;-70
2024/04/05 06:21:46;;;;;;;;;;;;;;;13.07;41.27;93503.13;3162136;28;1961;-70
2024/04/05 06:23:16;;;;;;;;;;;;;;;13.18;41.40;93503.75;3162298;28;1598;-70
2024/04/05 06:24:51;;;;;;;;;;;;;;;13.25;40.94;93504.13;3162145;28;1804;-70
2024/04/05 06:26:21;;;;;;;;;;;;;;;13.28;40.88;93508.94;3145858;28;1716;-70
2024/04/05 06:27:54;;;;;;;;;;;;;;;13.34;40.61;93515.00;3129043;28;1679;-70
2024/04/05 06:29:25;;;;;;;;;;;;;;;13.41;40.64;93510.00;3141713;28;1995;-70
2024/04/05 06:30:57;;;;;;;;;;;;;;;13.52;40.41;93507.88;3154102;28;1881;-70
2024/04/05 06:32:27;;;;;;;;;;;;;;;13.66;40.30;93512.09;3157925;28;1847;-69
2024/04/05 06:33:58;;;;;;;;;;;;;;;13.72;40.32;93508.22;3132728;28;1660;-70
2024/04/05 06:35:28;;;;;;;;;;;;;;;13.77;40.21;93507.28;3149525;28;1750;-70
2024/04/05 06:36:59;;;;;;;;;;;;;;;13.85;40.04;93514.66;3136965;28;1680;-70
2024/04/05 06:38:30;;;;;;;;;;;;;;;13.95;40.06;93513.63;3137165;28;1748;-70
2024/04/05 06:40:01;;;;;;;;;;;;;;;14.01;40.13;93515.88;3153748;28;1673;-70
2024/04/05 06:41:31;;;;;;;;;;;;;;;14.05;40.03;93514.16;3149332;28;1806;-70
2024/04/05 06:43:02;;;;;;;;;;;;;;;14.17;39.90;93516.31;3145167;28;1633;-70
2024/04/05 06:44:38;;;;;;;;;;;;;;;14.33;40.21;93509.44;3141169;28;1820;-70
2024/04/05 06:46:10;;;;;;;;;;;;;;;14.46;40.29;93519.38;3142740;28;1680;-70
2024/04/05 06:47:41;;;;;;;;;;;;;;;14.55;39.83;93519.44;3154109;28;1883;-70
2024/04/05 06:49:14;;;;;;;;;;;;;;;14.68;39.71;93512.31;3136711;28;1906;-70
2024/04/05 06:50:46;;;;;;;;;;;;;;;14.71;40.10;93517.13;3137786;28;1815;-70
2024/04/05 06:52:16;;;;;;;;;;;;;;;14.79;39.77;93522.53;3141399;28;1810;-71
2024/04/05 06:53:48;;;;;;;;;;;;;;;14.92;39.76;93520.84;3145031;28;1669;-70
2024/04/05 06:55:20;;;;;;;;;;;;;;;15.08;39.49;93522.03;3154118;28;1473;-70
2024/04/05 06:56:51;;;;;;;;;;;;;;;15.20;39.95;93526.84;3132735;28;1912;-69
2024/04/05 06:58:22;;;;;;;;;;;;;;;15.32;39.97;93528.94;3136916;28;1807;-70
2024/04/05 06:59:53;;;;;;;;;;;;;;;15.34;39.90;93524.03;3128621;28;1662;-70
2024/04/05 07:01:24;;;;;;;;;;;;;;;15.46;39.71;93532.31;3137167;28;1901;-70
2024/04/05 07:02:54;;;;;;;;;;;;;;;15.59;39.76;93528.69;3141243;28;1926;-70
2024/04/05 07:04:26;;;;;;;;;;;;;;;15.66;39.38;93534.44;3145113;28;1624;-70
2024/04/05 07:06:00;;;;;;;;;;;;;;;15.79;39.42;93530.81;3128895;28;1808;-70
2024/04/05 07:07:30;;;;;;;;;;;;;;;15.96;39.68;93535.41;3137920;28;1662;-70
2024/04/05 07:09:03;;;;;;;;;;;;;;;16.09;39.63;93539.09;3153583;28;1913;-70
2024/04/05 07:10:34;;;;;;;;;;;;;;;16.29;39.36;93538.41;3145308;28;1708;-70
2024/04/05 07:12:06;;;;;;;;;;;;;;;16.42;39.53;93533.94;3141244;28;1633;-70
2024/04/05 07:13:38;;;;;;;;;;;;;;;16.55;39.23;93541.09;3145261;28;1840;-70
2024/04/05 07:15:09;;;;;;;;;;;;;;;16.70;39.33;93532.50;3140984;28;1701;-70
2024/04/05 07:16:40;;;;;;;;;;;;;;;16.83;39.16;93542.31;3153653;28;1746;-70
2024/04/05 07:18:10;;;;;;;;;;;;;;;16.91;39.19;93541.53;3144896;28;1625;-70
2024/04/05 07:19:41;;;;;;;;;;;;;;;17.00;39.22;93538.78;3153257;28;1739;-70
2024/04/05 07:21:13;;;;;;;;;;;;;;;17.12;39.05;93533.47;3144617;28;1789;-70
2024/04/05 07:22:44;;;;;;;;;;;;;;;17.19;39.09;93533.72;3141060;28;1546;-71
2024/04/05 07:24:15;;;;;;;;;;;;;;;17.26;38.89;93536.75;3145020;28;1901;-70
2024/04/05 07:25:46;;;;;;;;;;;;;;;17.39;38.90;93540.34;3128237;28;1523;-70
2024/04/05 07:27:17;;;;;;;;;;;;;;;17.56;38.77;93537.53;3140558;28;1668;-71
2024/04/05 07:28:49;;;;;;;;;;;;;;;17.64;38.68;93535.91;3153407;28;1822;-71
2024/04/05 07:30:20;;;;;;;;;;;;;;;17.77;38.65;93535.69;3144661;28;1910;-71
2024/04/05 07:31:50;;;;;;;;;;;;;;;17.89;38.51;93537.66;3128449;28;1926;-70
2024/04/05 07:33:21;;;;;;;;;;;;;;;18.00;38.51;93538.88;3148965;28;1636;-70
2024/04/05 07:34:52;;;;;;;;;;;;;;;18.09;38.59;93534.16;3132369;28;1869;-70
2024/04/05 07:36:23;;;;;;;;;;;;;;;18.14;38.56;93533.97;3124059;28;1709;-71
2024/04/05 07:37:55;;;;;;;;;;;;;;;18.15;38.46;93542.91;3149067;28;1637;-70
2024/04/05 07:39:26;;;;;;;;;;;;;;;18.25;38.75;93537.06;3132467;28;1877;-70
2024/04/05 07:41:05;;;;;;;;;;;;;;;18.38;38.25;93536.00;3140783;28;1304;-70
2024/04/05 07:42:36;;;;;;;;;;;;;;;18.54;38.10;93529.91;3143054;28;1784;-70
2024/04/05 07:44:07;;;;;;;;;;;;;;;18.69;37.92;93546.44;3153216;28;1862;-71
2024/04/05 07:45:38;;;;;;;;;;;;;;;18.80;37.73;93535.94;3144635;28;1628;-70
2024/04/05 07:47:08;;;;;;;;;;;;;;;18.91;37.60;93534.38;3140718;28;1608;-70
2024/04/05 07:48:39;;;;;;;;;;;;;;;18.93;37.58;93534.84;3140431;28;1919;-70
2024/04/05 07:50:11;;;;;;;;;;;;;;;19.03;37.39;93549.91;3140561;28;1936;-71
2024/04/05 07:51:42;;;;;;;;;;;;;;;19.14;37.41;93537.47;3152984;28;1907;-70
2024/04/05 07:53:12;;;;;;;;;;;;;;;19.22;37.25;93545.53;3156887;28;1797;-70
2024/04/05 07:54:43;;;;;;;;;;;;;;;19.35;37.00;93546.31;3144339;28;1919;-70
2024/04/05 07:56:14;;;;;;;;;;;;;;;19.49;36.88;93543.31;3152746;28;1881;-70
2024/04/05 07:57:45;;;;;;;;;;;;;;;19.50;36.74;93542.97;3144368;28;1877;-70
2024/04/05 07:59:15;;;;;;;;;;;;;;;19.59;36.90;93542.84;3139695;28;1679;-70
2024/04/05 08:00:46;;;;;;;;;;;;;;;19.75;36.81;93546.44;3140080;28;1652;-70
2024/04/05 08:02:16;;;;;;;;;;;;;;;19.80;36.75;93543.50;3152737;28;1975;-70